createdAt,value
2018-04-11T00:02:26.649Z,94.75
2018-04-11T00:04:54.452Z,94.64
2018-04-11T00:07:22.183Z,95.22
2018-04-11T00:09:49.858Z,96.00
2018-04-11T00:12:17.602Z,96.34
2018-04-11T00:14:45.297Z,96.80
2018-04-11T00:17:12.928Z,97.14
2018-04-11T00:19:40.583Z,97.41
2018-04-11T00:22:08.481Z,96.42
2018-04-11T00:24:36.220Z,97.15
2018-04-11T00:27:03.957Z,96.70
2018-04-11T00:29:31.537Z,95.61
2018-04-11T00:31:59.249Z,95.64
2018-04-11T00:34:27.103Z,96.42
2018-04-11T00:36:54.839Z,97.42
2018-04-11T00:39:22.465Z,97.87
2018-04-11T00:41:50.364Z,97.55
2018-04-11T00:44:17.976Z,96.39
2018-04-11T00:46:45.691Z,97.55
2018-04-11T00:49:13.309Z,98.00
2018-04-11T00:51:40.949Z,98.19
2018-04-11T00:54:08.661Z,98.57
2018-04-11T00:56:36.369Z,98.59
2018-04-11T00:59:04.159Z,98.62
2018-04-11T01:01:32.063Z,97.42
2018-04-11T01:03:59.729Z,96.33
2018-04-11T01:06:27.519Z,95.06
2018-04-11T01:08:55.183Z,95.75
2018-04-11T01:11:22.806Z,97.10
2018-04-11T01:13:50.495Z,96.83
2018-04-11T01:16:18.247Z,96.46
2018-04-11T01:18:46.033Z,96.63
2018-04-11T01:21:13.692Z,96.87
2018-04-11T01:23:41.586Z,97.12
2018-04-11T01:26:09.317Z,96.42
2018-04-11T01:28:37.137Z,95.41
2018-04-11T01:31:04.887Z,94.21
2018-04-11T01:33:32.563Z,95.12
2018-04-11T01:36:00.172Z,95.75
2018-04-11T01:38:27.994Z,96.21
2018-04-11T01:40:55.802Z,96.88
2018-04-11T01:43:23.662Z,96.70
2018-04-11T01:45:51.459Z,97.22
2018-04-11T01:48:19.308Z,97.12
2018-04-11T01:50:46.979Z,96.59
2018-04-11T01:53:14.764Z,95.80
2018-04-11T01:55:42.546Z,96.09
2018-04-11T01:58:10.282Z,97.15
2018-04-11T02:00:38.299Z,97.66
2018-04-11T02:03:05.930Z,98.03
2018-04-11T02:05:33.665Z,97.43
2018-04-11T02:08:03.533Z,96.73
2018-04-11T02:10:31.444Z,97.40
2018-04-11T02:12:59.128Z,97.65
2018-04-11T02:15:27.079Z,97.82
2018-04-11T02:17:54.983Z,97.73
2018-04-11T02:20:22.702Z,97.78
2018-04-11T02:22:50.409Z,98.22
2018-04-11T02:25:18.252Z,98.50
2018-04-11T02:27:46.129Z,98.74
2018-04-11T02:30:13.982Z,99.08
2018-04-11T02:32:41.743Z,99.26
2018-04-11T02:35:09.818Z,99.37
2018-04-11T02:37:37.453Z,99.23
2018-04-11T02:40:05.224Z,99.35
2018-04-11T02:42:32.960Z,99.03
2018-04-11T02:45:00.720Z,98.64
2018-04-11T02:47:28.515Z,99.21
2018-04-11T02:49:56.242Z,99.26
2018-04-11T02:52:23.997Z,98.71
2018-04-11T02:54:51.601Z,98.84
2018-04-11T02:57:19.464Z,99.20
2018-04-11T02:59:47.072Z,99.00
2018-04-11T03:02:14.751Z,98.75
2018-04-11T03:04:42.370Z,97.90
2018-04-11T03:07:10.382Z,97.28
2018-04-11T03:09:38.323Z,97.23
2018-04-11T03:12:06.112Z,97.90
2018-04-11T03:14:33.748Z,97.89
2018-04-11T03:17:01.780Z,97.84
2018-04-11T03:19:29.487Z,98.26
2018-04-11T03:21:57.374Z,98.85
2018-04-11T03:24:25.212Z,98.37
2018-04-11T03:26:52.914Z,98.39
2018-04-11T03:29:20.587Z,97.85
2018-04-11T03:31:48.405Z,97.84
2018-04-11T03:34:16.178Z,98.19
2018-04-11T03:36:43.821Z,97.45
2018-04-11T03:39:11.538Z,97.14
2018-04-11T03:41:39.166Z,96.74
2018-04-11T03:44:07.049Z,97.89
2018-04-11T03:46:34.851Z,98.07
2018-04-11T03:49:02.749Z,97.51
2018-04-11T03:51:30.463Z,97.16
2018-04-11T03:53:58.359Z,97.34
2018-04-11T03:56:26.588Z,97.42
2018-04-11T03:58:54.420Z,96.83
2018-04-11T04:01:22.174Z,96.49
2018-04-11T04:03:49.945Z,95.86
2018-04-11T04:06:18.012Z,96.49
2018-04-11T04:08:45.686Z,96.73
2018-04-11T04:11:13.511Z,97.12
2018-04-11T04:13:53.433Z,98.02
2018-04-11T04:16:33.146Z,97.88
2018-04-11T04:19:12.873Z,98.12
2018-04-11T04:21:41.638Z,97.62
2018-04-11T04:24:09.458Z,97.43
2018-04-11T04:26:37.033Z,96.75
2018-04-11T04:29:04.979Z,97.22
2018-04-11T04:31:32.686Z,96.64
2018-04-11T04:34:00.353Z,95.86
2018-04-11T04:36:27.986Z,95.35
2018-04-11T04:38:55.602Z,95.55
2018-04-11T04:41:23.234Z,95.97
2018-04-11T04:43:51.053Z,95.35
2018-04-11T04:46:18.831Z,96.25
2018-04-11T04:48:46.547Z,96.13
2018-04-11T04:51:14.255Z,96.14
2018-04-11T04:53:42.191Z,95.60
2018-04-11T04:56:09.782Z,96.40
2018-04-11T04:58:37.569Z,97.69
2018-04-11T05:01:05.336Z,98.19
2018-04-11T05:03:33.161Z,97.48
2018-04-11T05:06:00.872Z,97.21
2018-04-11T05:08:28.725Z,96.49
2018-04-11T05:10:56.535Z,95.85
2018-04-11T05:13:24.251Z,95.68
2018-04-11T05:15:51.993Z,96.60
2018-04-11T05:18:19.608Z,96.31
2018-04-11T05:20:47.308Z,94.28
2018-04-11T05:23:14.955Z,94.07
2018-04-11T05:25:42.621Z,93.35
2018-04-11T05:28:10.265Z,95.71
2018-04-11T05:30:38.250Z,95.28
2018-04-11T05:33:05.945Z,94.14
2018-04-11T05:35:33.930Z,92.93
2018-04-11T05:38:01.667Z,92.54
2018-04-11T05:40:29.580Z,93.35
2018-04-11T05:42:57.317Z,93.26
2018-04-11T05:45:25.276Z,95.22
2018-04-11T05:47:52.946Z,95.73
2018-04-11T05:50:20.755Z,95.83
2018-04-11T05:52:48.576Z,96.38
2018-04-11T05:55:16.427Z,96.13
2018-04-11T05:57:44.214Z,95.99
2018-04-11T06:00:12.036Z,94.08
2018-04-11T06:02:39.628Z,88.40
2018-04-11T06:05:08.055Z,89.23
2018-04-11T06:07:35.944Z,89.19
2018-04-11T06:10:03.831Z,89.44
2018-04-11T06:12:31.551Z,89.22
2018-04-11T06:14:59.617Z,88.97
2018-04-11T06:17:27.209Z,87.03
2018-04-11T06:19:54.736Z,85.59
2018-04-11T06:22:22.575Z,84.38
2018-04-11T06:24:50.395Z,82.29
2018-04-11T06:27:18.124Z,82.62
2018-04-11T06:29:45.966Z,82.25
2018-04-11T06:32:13.529Z,80.17
2018-04-11T06:34:41.261Z,80.48
2018-04-11T06:37:08.910Z,79.27
2018-04-11T06:39:36.779Z,79.49
2018-04-11T06:42:04.406Z,75.92
2018-04-11T06:44:32.118Z,75.12
2018-04-11T06:46:59.705Z,74.84
2018-04-11T06:49:27.517Z,73.54
2018-04-11T06:51:55.180Z,73.23
2018-04-11T06:54:22.880Z,73.94
2018-04-11T06:56:50.552Z,71.21
2018-04-11T06:59:18.174Z,71.89
2018-04-11T07:01:45.887Z,74.42
2018-04-11T07:04:13.656Z,71.28
2018-04-11T07:06:41.929Z,71.06
2018-04-11T07:09:09.642Z,72.27
2018-04-11T07:11:37.445Z,75.08
2018-04-11T07:14:05.149Z,69.32
2018-04-11T07:16:32.882Z,70.97
2018-04-11T07:19:00.486Z,71.12
2018-04-11T07:21:27.996Z,67.18
2018-04-11T07:23:55.589Z,68.52
2018-04-11T07:26:23.319Z,68.55
2018-04-11T07:28:50.925Z,68.61
2018-04-11T07:31:18.650Z,69.49
2018-04-11T07:33:46.242Z,69.47
2018-04-11T07:36:13.973Z,69.56
2018-04-11T07:38:41.490Z,69.92
2018-04-11T07:41:09.144Z,63.19
2018-04-11T07:43:36.900Z,63.52
2018-04-11T07:46:04.770Z,61.78
2018-04-11T07:48:32.419Z,60.38
2018-04-11T07:51:00.112Z,58.66
2018-04-11T07:53:27.775Z,57.99
2018-04-11T07:55:55.381Z,56.58
2018-04-11T07:58:23.219Z,56.87
2018-04-11T08:00:50.885Z,57.07
2018-04-11T08:03:18.572Z,55.92
2018-04-11T08:05:46.264Z,54.47
2018-04-11T08:08:13.819Z,54.55
2018-04-11T08:10:41.371Z,55.24
2018-04-11T08:13:08.970Z,51.54
2018-04-11T08:15:36.539Z,50.17
2018-04-11T08:18:04.239Z,47.68
2018-04-11T08:20:31.860Z,48.10
2018-04-11T08:22:59.418Z,47.15
2018-04-11T08:25:27.065Z,48.76
2018-04-11T08:27:54.569Z,48.78
2018-04-11T08:30:22.267Z,44.19
2018-04-11T08:32:49.920Z,45.07
2018-04-11T08:35:17.510Z,43.31
2018-04-11T08:37:45.255Z,46.35
2018-04-11T08:40:13.021Z,44.04
2018-04-11T08:42:40.675Z,41.28
2018-04-11T08:45:08.306Z,43.10
2018-04-11T08:47:35.944Z,40.55
2018-04-11T08:50:03.475Z,42.17
2018-04-11T08:52:31.195Z,44.01
2018-04-11T08:54:58.747Z,43.61
2018-04-11T08:57:26.279Z,44.46
2018-04-11T08:59:53.795Z,44.84
2018-04-11T09:02:21.435Z,39.16
2018-04-11T09:04:49.069Z,35.72
2018-04-11T09:07:16.765Z,34.32
2018-04-11T09:09:44.456Z,35.72
2018-04-11T09:12:12.085Z,37.01
2018-04-11T09:14:39.971Z,35.44
2018-04-11T09:17:07.645Z,36.29
2018-04-11T09:19:35.244Z,35.29
2018-04-11T09:22:02.819Z,31.42
2018-04-11T09:24:30.346Z,31.25
2018-04-11T09:26:57.925Z,29.08
2018-04-11T09:29:25.695Z,32.44
2018-04-11T09:31:53.395Z,28.46
2018-04-11T09:34:20.926Z,30.31
2018-04-11T09:36:48.613Z,29.48
2018-04-11T09:39:16.289Z,27.60
2018-04-11T09:41:43.862Z,27.35
2018-04-11T09:44:11.472Z,27.13
2018-04-11T09:46:39.096Z,25.76
2018-04-11T09:49:06.706Z,25.94
2018-04-11T09:51:34.271Z,24.56
2018-04-11T09:54:01.925Z,24.05
2018-04-11T09:56:29.472Z,22.70
2018-04-11T09:58:57.136Z,23.76
2018-04-11T10:01:24.862Z,24.69
2018-04-11T10:03:52.421Z,28.78
2018-04-11T10:06:19.967Z,26.93
2018-04-11T10:08:47.487Z,27.48
2018-04-11T10:11:15.089Z,28.19
2018-04-11T10:13:42.656Z,32.84
2018-04-11T10:16:10.255Z,29.96
2018-04-11T10:18:37.792Z,28.31
2018-04-11T10:21:05.467Z,25.67
2018-04-11T10:23:33.167Z,25.38
2018-04-11T10:26:00.721Z,23.90
2018-04-11T10:28:28.389Z,23.55
2018-04-11T10:30:56.627Z,23.21
2018-04-11T10:33:24.362Z,23.00
2018-04-11T10:35:51.995Z,22.62
2018-04-11T10:38:20.816Z,24.97
2018-04-11T10:40:48.490Z,24.19
2018-04-11T10:43:16.106Z,23.34
2018-04-11T10:45:43.740Z,20.29
2018-04-11T10:48:11.269Z,19.56
2018-04-11T10:50:38.988Z,20.51
2018-04-11T10:53:06.581Z,20.21
2018-04-11T10:55:34.311Z,20.83
2018-04-11T10:58:01.977Z,18.87
2018-04-11T11:00:29.672Z,21.26
2018-04-11T11:02:57.297Z,21.78
2018-04-11T11:05:24.956Z,18.62
2018-04-11T11:07:52.552Z,18.31
2018-04-11T11:10:20.312Z,16.86
2018-04-11T11:12:48.048Z,19.07
2018-04-11T11:15:15.742Z,18.42
2018-04-11T11:17:43.436Z,19.90
2018-04-11T11:20:11.171Z,19.22
2018-04-11T11:22:38.777Z,19.18
2018-04-11T11:25:06.461Z,22.45
2018-04-11T11:27:33.988Z,24.42
2018-04-11T11:30:01.585Z,24.10
2018-04-11T11:32:29.268Z,24.41
2018-04-11T11:34:56.991Z,22.82
2018-04-11T11:37:24.642Z,23.37
2018-04-11T11:39:52.227Z,20.77
2018-04-11T11:42:19.872Z,23.65
2018-04-11T11:44:47.602Z,23.82
2018-04-11T11:47:15.203Z,21.96
2018-04-11T11:49:43.071Z,19.74
2018-04-11T11:52:10.764Z,20.28
2018-04-11T11:54:39.182Z,17.68
2018-04-11T11:57:07.033Z,16.90
2018-04-11T11:59:34.663Z,17.68
2018-04-11T12:02:02.254Z,19.69
2018-04-11T12:04:29.975Z,18.86
2018-04-11T12:06:57.776Z,19.84
2018-04-11T12:09:25.523Z,18.21
2018-04-11T12:11:53.181Z,18.88
2018-04-11T12:14:20.807Z,16.74
2018-04-11T12:16:48.529Z,16.58
2018-04-11T12:19:16.147Z,17.08
2018-04-11T12:21:43.998Z,16.96
2018-04-11T12:24:11.633Z,15.24
2018-04-11T12:26:39.222Z,19.93
2018-04-11T12:29:06.906Z,21.51
2018-04-11T12:31:34.622Z,21.27
2018-04-11T12:34:02.383Z,17.90
2018-04-11T12:36:30.282Z,18.91
2018-04-11T12:38:57.908Z,19.26
2018-04-11T12:41:25.604Z,21.05
2018-04-11T12:43:53.308Z,21.95
2018-04-11T12:46:20.953Z,17.86
2018-04-11T12:48:48.508Z,19.04
2018-04-11T12:51:16.134Z,19.96
2018-04-11T12:53:43.824Z,23.28
2018-04-11T12:56:11.497Z,22.08
2018-04-11T12:58:39.172Z,20.78
2018-04-11T13:01:07.136Z,19.39
2018-04-11T13:03:34.842Z,19.05
2018-04-11T13:06:02.433Z,18.64
2018-04-11T13:08:30.047Z,21.09
2018-04-11T13:10:57.802Z,22.35
2018-04-11T13:13:25.597Z,23.45
2018-04-11T13:15:53.218Z,20.40
2018-04-11T13:18:21.214Z,24.55
2018-04-11T13:20:48.752Z,25.38
2018-04-11T13:23:16.469Z,25.03
2018-04-11T13:25:44.193Z,23.72
2018-04-11T13:28:11.754Z,23.54
2018-04-11T13:30:39.558Z,24.79
2018-04-11T13:33:07.218Z,22.87
2018-04-11T13:35:34.823Z,18.62
2018-04-11T13:38:02.479Z,21.83
2018-04-11T13:40:30.122Z,24.86
2018-04-11T13:42:57.678Z,26.34
2018-04-11T13:45:25.389Z,27.24
2018-04-11T13:47:53.087Z,25.12
2018-04-11T13:50:20.735Z,27.88
2018-04-11T13:52:48.513Z,30.62
2018-04-11T13:55:16.267Z,31.13
2018-04-11T13:57:43.913Z,34.12
2018-04-11T14:00:11.548Z,34.62
2018-04-11T14:02:39.257Z,35.38
2018-04-11T14:05:06.926Z,36.46
2018-04-11T14:07:34.680Z,35.58
2018-04-11T14:10:02.283Z,36.90
2018-04-11T14:12:30.019Z,36.45
2018-04-11T14:14:57.723Z,37.08
2018-04-11T14:17:25.357Z,36.90
2018-04-11T14:19:52.964Z,36.09
2018-04-11T14:22:20.793Z,36.65
2018-04-11T14:24:48.793Z,37.72
2018-04-11T14:27:16.445Z,37.09
2018-04-11T14:29:43.988Z,37.27
2018-04-11T14:32:11.607Z,38.55
2018-04-11T14:34:39.305Z,36.51
2018-04-11T14:37:06.977Z,35.94
2018-04-11T14:39:34.679Z,37.21
2018-04-11T14:42:02.363Z,36.99
2018-04-11T14:44:30.128Z,35.55
2018-04-11T14:46:57.759Z,33.85
2018-04-11T14:49:25.554Z,33.56
2018-04-11T14:51:53.183Z,33.12
2018-04-11T14:54:20.823Z,33.44
2018-04-11T14:56:48.513Z,32.20
2018-04-11T14:59:16.448Z,32.84
2018-04-11T15:01:44.073Z,33.70
2018-04-11T15:04:11.629Z,34.48
2018-04-11T15:06:39.283Z,33.46
2018-04-11T15:09:07.028Z,34.40
2018-04-11T15:11:34.774Z,33.16
2018-04-11T15:14:02.699Z,32.22
2018-04-11T15:16:30.447Z,33.26
2018-04-11T15:18:58.195Z,34.02
2018-04-11T15:21:25.934Z,30.84
2018-04-11T15:23:53.847Z,32.91
2018-04-11T15:26:21.504Z,34.01
2018-04-11T15:28:49.099Z,32.13
2018-04-11T15:31:16.693Z,33.79
2018-04-11T15:33:44.666Z,34.47
2018-04-11T15:36:12.252Z,35.32
2018-04-11T15:38:39.844Z,35.11
2018-04-11T15:41:07.507Z,36.35
2018-04-11T15:43:35.148Z,37.92
2018-04-11T15:46:02.788Z,37.99
2018-04-11T15:48:30.329Z,36.36
2018-04-11T15:50:57.968Z,36.90
2018-04-11T15:53:25.615Z,37.39
2018-04-11T15:55:53.239Z,37.94
2018-04-11T15:58:20.984Z,37.14
2018-04-11T16:00:48.709Z,38.00
2018-04-11T16:03:16.535Z,38.97
2018-04-11T16:05:44.345Z,38.06
2018-04-11T16:08:12.165Z,38.48
2018-04-11T16:10:39.850Z,38.15
2018-04-11T16:13:07.553Z,38.44
2018-04-11T16:15:35.114Z,39.00
2018-04-11T16:18:03.273Z,40.13
2018-04-11T16:20:30.980Z,41.16
2018-04-11T16:22:58.554Z,39.39
2018-04-11T16:25:26.235Z,40.23
2018-04-11T16:27:53.980Z,41.75
2018-04-11T16:30:21.589Z,41.21
2018-04-11T16:32:49.289Z,41.76
2018-04-11T16:35:16.958Z,41.16
2018-04-11T16:37:44.534Z,42.00
2018-04-11T16:40:12.324Z,41.97
2018-04-11T16:42:41.003Z,42.27
2018-04-11T16:45:19.990Z,41.80
2018-04-11T16:47:47.694Z,40.99
2018-04-11T16:50:15.265Z,42.17
2018-04-11T16:52:43.043Z,42.21
2018-04-11T16:55:10.704Z,41.45
2018-04-11T16:57:38.270Z,42.45
2018-04-11T17:00:06.778Z,42.68
2018-04-11T17:02:34.320Z,41.59
2018-04-11T17:05:01.858Z,42.91
2018-04-11T17:07:29.678Z,43.00
2018-04-11T17:09:57.241Z,43.80
2018-04-11T17:12:25.047Z,43.89
2018-04-11T17:14:52.619Z,45.27
2018-04-11T17:17:20.528Z,43.28
2018-04-11T17:19:48.138Z,44.39
2018-04-11T17:22:27.863Z,44.19
2018-04-11T17:25:07.381Z,43.87
2018-04-11T17:27:46.927Z,44.47
2018-04-11T17:30:26.643Z,45.30
2018-04-11T17:32:54.296Z,44.42
2018-04-11T17:35:21.878Z,44.39
2018-04-11T17:37:49.639Z,43.75
2018-04-11T17:40:17.240Z,43.96
2018-04-11T17:42:44.813Z,44.59
2018-04-11T17:45:12.426Z,45.24
2018-04-11T17:47:40.009Z,44.98
2018-04-11T17:50:07.640Z,45.54
2018-04-11T17:52:35.429Z,45.51
2018-04-11T17:55:03.069Z,46.43
2018-04-11T17:57:30.815Z,44.84
2018-04-11T17:59:58.358Z,44.55
2018-04-11T18:02:26.029Z,45.79
2018-04-11T18:04:53.783Z,47.11
2018-04-11T18:07:21.495Z,47.63
2018-04-11T18:09:49.320Z,48.73
2018-04-11T18:12:16.900Z,48.52
2018-04-11T18:14:44.795Z,51.20
2018-04-11T18:17:12.630Z,52.55
2018-04-11T18:19:40.274Z,52.68
2018-04-11T18:22:08.392Z,52.18
2018-04-11T18:24:36.029Z,52.53
2018-04-11T18:27:03.790Z,56.07
2018-04-11T18:29:31.450Z,59.28
2018-04-11T18:31:59.012Z,57.42
2018-04-11T18:34:26.870Z,58.02
2018-04-11T18:36:54.620Z,59.15
2018-04-11T18:39:22.280Z,57.94
2018-04-11T18:41:50.063Z,60.97
2018-04-11T18:44:17.806Z,60.54
2018-04-11T18:46:45.639Z,60.60
2018-04-11T18:49:13.476Z,63.80
2018-04-11T18:51:41.050Z,63.32
2018-04-11T18:54:08.890Z,63.43
2018-04-11T18:56:36.839Z,62.77
2018-04-11T18:59:04.744Z,61.99
2018-04-11T19:01:32.437Z,63.57
2018-04-11T19:04:00.109Z,64.94
2018-04-11T19:06:27.724Z,64.37
2018-04-11T19:08:55.360Z,64.61
2018-04-11T19:11:23.099Z,65.20
2018-04-11T19:13:50.845Z,68.17
2018-04-11T19:16:18.607Z,68.01
2018-04-11T19:18:46.375Z,67.69
2018-04-11T19:21:14.006Z,67.14
2018-04-11T19:23:41.610Z,68.81
2018-04-11T19:26:09.239Z,69.42
2018-04-11T19:28:37.196Z,69.10
2018-04-11T19:31:05.155Z,69.65
2018-04-11T19:33:32.780Z,71.10
2018-04-11T19:36:00.995Z,70.12
2018-04-11T19:38:28.726Z,71.30
2018-04-11T19:40:56.615Z,72.71
2018-04-11T19:43:24.766Z,73.04
2018-04-11T19:45:52.496Z,74.02
2018-04-11T19:48:20.106Z,72.58
2018-04-11T19:50:47.699Z,72.28
2018-04-11T19:53:15.733Z,72.50
2018-04-11T19:55:43.508Z,73.62
2018-04-11T19:58:11.357Z,73.06
2018-04-11T20:00:38.943Z,74.72
2018-04-11T20:03:06.671Z,73.16
2018-04-11T20:05:34.371Z,73.14
2018-04-11T20:08:01.974Z,72.90
2018-04-11T20:10:29.534Z,74.30
2018-04-11T20:12:57.100Z,74.93
2018-04-11T20:15:24.680Z,75.80
2018-04-11T20:17:52.769Z,76.53
2018-04-11T20:20:20.351Z,77.87
2018-04-11T20:22:47.951Z,76.98
2018-04-11T20:25:15.605Z,78.27
2018-04-11T20:27:43.407Z,77.31
2018-04-11T20:30:11.017Z,77.90
2018-04-11T20:32:38.620Z,77.38
2018-04-11T20:35:06.316Z,78.51
2018-04-11T20:37:33.980Z,77.62
2018-04-11T20:40:01.602Z,77.84
2018-04-11T20:42:29.399Z,78.37
2018-04-11T20:44:56.969Z,78.50
2018-04-11T20:47:24.639Z,77.80
2018-04-11T20:49:52.251Z,78.75
2018-04-11T20:52:19.930Z,78.44
2018-04-11T20:54:47.614Z,78.57
2018-04-11T20:57:15.265Z,77.62
2018-04-11T20:59:42.972Z,78.11
2018-04-11T21:02:10.671Z,79.23
2018-04-11T21:04:38.350Z,81.24
2018-04-11T21:07:05.940Z,81.50
2018-04-11T21:09:33.471Z,82.61
2018-04-11T21:12:01.199Z,83.92
2018-04-11T21:14:28.780Z,83.05
2018-04-11T21:16:56.554Z,82.67
2018-04-11T21:19:24.421Z,84.37
2018-04-11T21:21:52.129Z,83.81
2018-04-11T21:24:19.791Z,83.74
2018-04-11T21:26:47.520Z,84.99
2018-04-11T21:29:15.258Z,84.07
2018-04-11T21:31:43.774Z,83.05
2018-04-11T21:34:11.427Z,82.47
2018-04-11T21:36:39.198Z,82.83
2018-04-11T21:39:06.737Z,81.84
2018-04-11T21:41:34.321Z,82.65
2018-04-11T21:44:02.079Z,83.52
2018-04-11T21:46:29.752Z,83.36
2018-04-11T21:48:57.502Z,83.96
2018-04-11T21:51:25.247Z,82.10
2018-04-11T21:53:52.875Z,83.45
2018-04-11T21:56:20.470Z,82.35
2018-04-11T21:58:48.028Z,81.81
2018-04-11T22:01:15.750Z,82.02
2018-04-11T22:03:43.561Z,81.28
2018-04-11T22:06:11.337Z,79.94
2018-04-11T22:08:38.859Z,79.56
2018-04-11T22:11:06.465Z,78.78
2018-04-11T22:13:34.117Z,77.27
2018-04-11T22:16:01.677Z,75.62
2018-04-11T22:18:29.364Z,77.97
2018-04-11T22:20:56.895Z,77.04
2018-04-11T22:23:24.422Z,77.72
2018-04-11T22:25:52.186Z,79.97
2018-04-11T22:28:19.821Z,77.19
2018-04-11T22:30:47.412Z,77.46
2018-04-11T22:33:15.100Z,77.63
2018-04-11T22:35:42.834Z,76.69
2018-04-11T22:38:10.549Z,76.80
2018-04-11T22:40:38.167Z,74.68
2018-04-11T22:43:05.842Z,75.37
2018-04-11T22:45:33.406Z,74.20
2018-04-11T22:48:01.030Z,72.86
2018-04-11T22:50:28.636Z,71.66
2018-04-11T22:52:56.502Z,72.30
2018-04-11T22:55:24.208Z,73.90
2018-04-11T22:57:51.761Z,74.07
2018-04-11T23:00:19.450Z,72.46
2018-04-11T23:02:47.170Z,73.15
2018-04-11T23:05:14.926Z,73.99
2018-04-11T23:07:42.532Z,73.79
2018-04-11T23:10:10.281Z,77.08
2018-04-11T23:12:38.097Z,79.84
2018-04-11T23:15:05.782Z,80.77
2018-04-11T23:17:33.308Z,79.22
2018-04-11T23:20:00.908Z,78.00
2018-04-11T23:22:28.507Z,77.05
2018-04-11T23:24:56.090Z,76.29
2018-04-11T23:27:23.988Z,74.41
2018-04-11T23:29:51.723Z,73.84
2018-04-11T23:32:19.324Z,73.68
2018-04-11T23:34:46.840Z,72.39
2018-04-11T23:37:14.671Z,73.58
2018-04-11T23:39:42.375Z,75.32
2018-04-11T23:42:10.032Z,74.31
2018-04-11T23:44:37.709Z,73.83
2018-04-11T23:47:05.425Z,73.87
2018-04-11T23:49:33.162Z,75.46
2018-04-11T23:52:00.995Z,75.17
2018-04-11T23:54:28.533Z,75.91
2018-04-11T23:56:56.110Z,77.09
2018-04-11T23:59:23.670Z,76.80
